Time;durP1;ratioP1;P1;durP2;ratioP2;P2;SDS_P1;SDS_P2;PMS_P1;PMS_P2;Temp;Humidity;BMP_temperature;BMP_pressure;BME280_temperature;BME280_humidity;BME280_pressure;Samples;Min_cycle;Max_cycle;Signal;HPM_P1;HPM_P2
2022/01/29 00:00:41;;;;;;;4.68;4.47;;;;;;;4.45;93.45;102522.91;4414230;32;20099;-78
2022/01/29 00:03:06;;;;;;;3.55;3.25;;;;;;;4.17;93.06;102463.94;4410032;32;20068;-77
2022/01/29 00:05:32;;;;;;;4.68;4.47;;;;;;;4.13;93.32;102457.00;4420785;32;20091;-77
2022/01/29 00:07:57;;;;;;;3.30;3.20;;;;;;;4.90;92.99;102573.31;4412913;32;20098;-78
2022/01/29 00:10:22;;;;;;;4.32;4.15;;;;;;;4.86;92.56;102561.16;4428640;32;20064;-76
2022/01/29 00:12:48;;;;;;;3.08;2.97;;;;;;;4.84;92.74;102542.09;4414860;32;20095;-75
2022/01/29 00:15:13;;;;;;;3.30;3.20;;;;;;;5.09;92.96;102590.69;4426527;32;20064;-76
2022/01/29 00:17:39;;;;;;;4.47;4.28;;;;;;;4.40;92.44;102471.78;4426422;32;20121;-77
2022/01/29 00:20:05;;;;;;;4.05;3.85;;;;;;;5.08;93.21;102595.87;4428024;32;20093;-77
2022/01/29 00:22:30;;;;;;;5.25;5.05;;;;;;;4.86;92.80;102541.22;4423419;32;20194;-75
2022/01/29 00:24:59;;;;;;;3.37;3.28;;;;;;;4.50;92.54;102477.87;4417373;32;20072;-76
2022/01/29 00:27:26;;;;;;;5.18;4.80;;;;;;;4.97;93.18;102551.63;4406317;32;20087;-75
2022/01/29 00:29:52;;;;;;;3.37;3.28;;;;;;;4.35;92.89;102433.66;4391935;32;20138;-75
2022/01/29 00:32:17;;;;;;;3.10;3.00;;;;;;;4.97;92.70;102546.41;4417850;32;20458;-75
2022/01/29 00:34:42;;;;;;;3.17;3.08;;;;;;;4.76;93.21;102490.91;4406884;32;20103;-75
2022/01/29 00:37:08;;;;;;;3.60;3.40;;;;;;;4.81;92.53;102485.69;4403773;32;20601;-76
2022/01/29 00:39:34;;;;;;;4.70;4.50;;;;;;;4.94;92.34;102507.41;4383803;32;20072;-76
2022/01/29 00:41:59;;;;;;;3.45;3.35;;;;;;;4.67;92.76;102470.13;4404449;32;20138;-77
2022/01/29 00:44:24;;;;;;;4.12;3.92;;;;;;;5.17;93.39;102552.53;4390338;32;20087;-75
2022/01/29 00:46:50;;;;;;;3.30;3.20;;;;;;;5.22;92.64;102551.66;4402164;32;20077;-76
2022/01/29 00:49:15;;;;;;;3.30;3.20;;;;;;;4.93;92.86;102508.25;4411884;32;20061;-75
2022/01/29 00:51:41;;;;;;;3.95;3.75;;;;;;;4.37;92.94;102416.31;4398363;32;20069;-76
2022/01/29 00:54:06;;;;;;;3.45;3.35;;;;;;;5.18;92.80;102556.84;4410148;32;20194;-76
2022/01/29 00:56:31;;;;;;;4.62;4.43;;;;;;;5.19;93.87;102558.59;4412343;32;20064;-77
2022/01/29 00:58:57;;;;;;;3.45;3.35;;;;;;;5.22;93.88;102562.06;4408623;32;20862;-76
2022/01/29 01:01:22;;;;;;;3.67;3.55;;;;;;;4.68;93.31;102465.78;4428835;32;20666;-77
2022/01/29 01:03:48;;;;;;;3.20;3.10;;;;;;;5.24;93.53;102558.59;4399392;32;20065;-77
2022/01/29 01:06:13;;;;;;;3.10;3.00;;;;;;;4.78;93.55;102478.78;4414399;32;20187;-77
2022/01/29 01:08:38;;;;;;;4.32;4.12;;;;;;;4.09;92.54;102356.53;4410936;32;20069;-75
2022/01/29 01:11:04;;;;;;;3.58;3.47;;;;;;;5.27;93.14;102549.91;4411877;32;20149;-77
2022/01/29 01:13:30;;;;;;;4.82;4.62;;;;;;;4.33;93.62;102381.69;4415363;32;20087;-77
2022/01/29 01:15:56;;;;;;;3.67;3.45;;;;;;;4.98;92.57;102480.53;4412104;32;20076;-78
2022/01/29 01:18:21;;;;;;;3.37;3.28;;;;;;;5.20;93.16;102499.59;4421055;32;20095;-78
2022/01/29 01:20:46;;;;;;;3.78;3.58;;;;;;;5.31;92.92;102515.19;4395417;32;20072;-78
2022/01/29 01:23:12;;;;;;;3.30;3.20;;;;;;;5.21;92.33;102490.91;4409962;32;20142;-78
2022/01/29 01:25:37;;;;;;;4.85;4.65;;;;;;;4.44;92.23;102347.03;4416315;32;20087;-77
2022/01/29 01:28:02;;;;;;;3.58;3.37;;;;;;;5.40;91.96;102481.34;4439115;32;20118;-78
2022/01/29 01:30:28;;;;;;;4.78;4.57;;;;;;;4.10;92.39;102241.34;4394872;32;20077;-77
2022/01/29 01:32:53;;;;;;;3.83;3.62;;;;;;;5.02;92.61;102403.34;4418213;32;20926;-77
2022/01/29 01:35:25;;;;;;;3.22;3.12;;;;;;;5.38;92.00;102470.94;4396866;32;20083;-77
2022/01/29 01:38:04;;;;;;;3.20;3.10;;;;;;;2.68;92.44;102040.53;4420545;32;20486;-77
2022/01/29 01:40:30;;;;;;;27.48;5.82;;;;;;;5.32;92.68;102468.34;4397715;32;20909;-77
2022/01/29 01:43:00;;;;;;;3.37;3.28;;;;;;;5.37;92.46;102465.72;4396827;32;20204;-77
2022/01/29 01:45:26;;;;;;;4.00;3.80;;;;;;;5.26;92.50;102465.75;4390930;32;20076;-79
2022/01/29 01:47:51;;;;;;;3.87;3.60;;;;;;;5.40;92.38;102468.31;4419168;32;20199;-79
2022/01/29 01:50:17;;;;;;;3.20;3.10;;;;;;;5.40;92.48;102473.53;4395238;32;20692;-78
2022/01/29 01:52:42;;;;;;;3.20;3.10;;;;;;;5.36;91.87;102464.84;4395762;32;20211;-77
2022/01/29 01:55:07;;;;;;;3.70;3.53;;;;;;;5.25;92.52;102451.00;4401442;32;20085;-77
2022/01/29 01:57:33;;;;;;;4.95;4.75;;;;;;;5.07;92.78;102392.06;4405585;32;20113;-78
2022/01/29 01:59:58;;;;;;;3.25;3.15;;;;;;;5.23;92.45;102415.41;4398433;32;20201;-77
2022/01/29 02:02:24;;;;;;;4.55;4.35;;;;;;;4.70;92.60;102318.41;4395623;32;20080;-78
2022/01/29 02:04:49;;;;;;;4.07;3.87;;;;;;;4.86;91.65;102327.91;4420389;32;20075;-76
2022/01/29 02:07:15;;;;;;;3.78;3.58;;;;;;;5.43;92.33;102436.19;4407976;32;20061;-77
2022/01/29 02:09:40;;;;;;;3.60;3.50;;;;;;;4.66;92.19;102291.53;4392044;32;20614;-76
2022/01/29 02:12:08;;;;;;;3.45;3.35;;;;;;;5.34;92.18;102398.91;4421474;32;20077;-77
2022/01/29 02:14:35;;;;;;;4.57;4.37;;;;;;;4.52;91.55;102246.50;4400730;32;20423;-76
2022/01/29 02:17:01;;;;;;;3.97;3.78;;;;;;;5.09;92.66;102337.38;4411999;32;20076;-76
2022/01/29 02:19:26;;;;;;;4.57;4.37;;;;;;;4.90;92.26;102320.97;4393763;32;20069;-76
2022/01/29 02:21:53;;;;;;;3.20;3.10;;;;;;;5.28;92.17;102385.06;4397768;32;20127;-76
2022/01/29 02:24:18;;;;;;;3.20;3.10;;;;;;;4.55;91.98;102243.87;4405717;32;20076;-78
2022/01/29 02:26:44;;;;;;;3.28;3.17;;;;;;;3.99;92.32;102142.66;4405029;32;21885;-76
2022/01/29 02:29:09;;;;;;;3.83;3.62;;;;;;;5.45;91.82;102382.37;4421363;32;20072;-75
2022/01/29 02:31:34;;;;;;;4.43;4.22;;;;;;;4.79;91.79;102256.84;4406746;32;20642;-76
2022/01/29 02:34:00;;;;;;;3.62;3.45;;;;;;;5.41;92.21;102360.69;4420391;32;20065;-76
2022/01/29 02:36:25;;;;;;;3.97;3.80;;;;;;;5.37;92.70;102351.16;4407534;32;20724;-75
2022/01/29 02:38:50;;;;;;;3.25;3.15;;;;;;;5.23;92.75;102334.72;4413677;32;20061;-74
2022/01/29 02:41:16;;;;;;;3.10;3.00;;;;;;;5.52;92.16;102376.28;4424371;32;20538;-76
2022/01/29 02:43:49;;;;;;;3.33;3.22;;;;;;;5.53;93.14;102375.41;4418878;32;20606;-76
2022/01/29 02:48:41;;;;;;;3.50;3.40;;;;;;;5.50;92.37;102376.28;4421704;32;20416;-75
2022/01/29 02:51:07;;;;;;;3.50;3.40;;;;;;;5.53;93.29;102365.00;4397240;32;20656;-76
2022/01/29 02:53:32;;;;;;;4.62;4.43;;;;;;;4.29;93.46;102158.16;4418016;32;20074;-77
2022/01/29 02:55:57;;;;;;;4.85;4.65;;;;;;;5.55;93.65;102358.03;4410608;32;20078;-79
2022/01/29 02:58:23;;;;;;;3.50;3.40;;;;;;;5.49;94.23;102361.56;4409158;32;20515;-77
2022/01/29 03:00:48;;;;;;;3.58;3.47;;;;;;;5.48;94.41;102353.75;4415842;32;20088;-78
2022/01/29 03:03:13;;;;;;;3.50;3.40;;;;;;;5.50;94.36;102329.41;4395691;32;20141;-77
2022/01/29 03:05:39;;;;;;;4.05;3.85;;;;;;;5.48;94.48;102330.31;4417513;32;21113;-77
2022/01/29 03:08:04;;;;;;;3.40;3.30;;;;;;;5.37;95.19;102306.91;4423697;32;20081;-78
2022/01/29 03:10:29;;;;;;;5.00;4.75;;;;;;;5.30;95.02;102295.66;4392686;32;20086;-77
2022/01/29 03:12:55;;;;;;;3.40;3.30;;;;;;;3.93;95.96;102075.13;4428475;32;20086;-78
2022/01/29 03:15:20;;;;;;;3.22;3.12;;;;;;;5.18;95.75;102291.37;4408139;32;20072;-77
2022/01/29 03:17:46;;;;;;;3.37;3.28;;;;;;;5.45;96.72;102317.28;4393264;32;21513;-75
2022/01/29 03:20:11;;;;;;;3.72;3.58;;;;;;;5.44;96.22;102339.00;4412702;32;20131;-76
2022/01/29 03:22:37;;;;;;;4.60;4.40;;;;;;;5.45;96.92;102319.88;4405548;32;20099;-77
2022/01/29 03:25:04;;;;;;;4.00;3.80;;;;;;;5.42;97.51;102296.50;4396828;32;20211;-78
2022/01/29 03:27:29;;;;;;;3.45;3.35;;;;;;;5.01;96.69;102241.13;4423335;32;20107;-78
2022/01/29 03:29:54;;;;;;;4.37;4.15;;;;;;;5.47;97.65;102316.44;4425542;32;20118;-75
2022/01/29 03:32:20;;;;;;;3.40;3.30;;;;;;;5.48;97.55;102304.28;4421193;32;20067;-76
2022/01/29 03:34:45;;;;;;;3.20;3.10;;;;;;;4.52;96.88;102145.09;4422777;32;20095;-79
2022/01/29 03:37:10;;;;;;;3.40;3.30;;;;;;;5.46;98.22;102300.81;4426304;32;20087;-79
2022/01/29 03:39:37;;;;;;;4.47;4.28;;;;;;;2.61;97.59;101828.91;4425193;32;20072;-79
2022/01/29 03:42:06;;;;;;;3.45;3.35;;;;;;;5.07;98.43;102228.12;4428395;32;20088;-79
2022/01/29 03:44:32;;;;;;;4.78;4.57;;;;;;;4.94;99.17;102208.22;4420466;32;20075;-75
2022/01/29 03:46:57;;;;;;;3.60;3.40;;;;;;;5.24;98.60;102293.09;4419568;32;20210;-77
2022/01/29 03:49:23;;;;;;;4.00;3.85;;;;;;;4.69;99.47;102160.62;4426283;32;20075;-79
2022/01/29 03:51:48;;;;;;;3.87;3.58;;;;;;;4.85;100.00;102193.53;4422872;32;20092;-75
2022/01/29 03:54:13;;;;;;;3.25;3.15;;;;;;;5.17;100.00;102241.91;4422202;32;20169;-75
2022/01/29 03:56:39;;;;;;;4.97;4.70;;;;;;;5.36;100.00;102293.03;4423597;32;20080;-76
2022/01/29 03:59:04;;;;;;;3.20;3.10;;;;;;;5.36;100.00;102287.81;4425555;32;20144;-76
2022/01/29 04:01:30;;;;;;;3.67;3.58;;;;;;;5.05;100.00;102242.88;4430712;32;20133;-75
2022/01/29 04:03:55;;;;;;;4.97;3.58;;;;;;;4.74;100.00;102179.69;4421959;32;20502;-78
2022/01/29 04:06:21;;;;;;;5.55;5.30;;;;;;;5.13;100.00;102245.41;4420137;32;20137;-75
2022/01/29 04:08:46;;;;;;;3.12;3.03;;;;;;;4.26;100.00;102119.22;4410896;32;20072;-75
2022/01/29 04:11:12;;;;;;;3.37;3.28;;;;;;;4.90;100.00;102196.09;4419015;32;21138;-80
2022/01/29 04:13:44;;;;;;;4.72;4.53;;;;;;;5.23;100.00;102262.72;4428037;32;20184;-79
2022/01/29 04:16:10;;;;;;;3.12;3.03;;;;;;;5.20;100.00;102241.94;4430060;32;20110;-78
2022/01/29 04:18:35;;;;;;;4.40;4.20;;;;;;;4.76;100.00;102168.41;4428439;32;20065;-78
2022/01/29 04:21:01;;;;;;;3.35;3.25;;;;;;;4.43;100.00;102095.75;4428251;32;20099;-79
2022/01/29 04:23:27;;;;;;;4.28;4.07;;;;;;;5.43;100.00;102293.00;4424609;32;20076;-77
2022/01/29 04:25:53;;;;;;;3.50;3.40;;;;;;;2.80;100.00;101827.97;4434021;32;21027;-77
2022/01/29 04:28:21;;;;;;;3.30;3.20;;;;;;;2.87;100.00;101888.47;4417717;32;20114;-76
2022/01/29 04:30:53;;;;;;;3.03;2.92;;;;;;;4.34;100.00;102079.31;4428615;32;20086;-76
2022/01/29 04:35:44;;;;;;;3.40;3.30;;;;;;;5.24;100.00;102242.78;4430424;32;20946;-76
2022/01/29 04:38:09;;;;;;;3.20;3.10;;;;;;;4.43;100.00;102103.53;4430855;32;20141;-78
2022/01/29 04:40:35;;;;;;;4.85;4.65;;;;;;;5.34;100.00;102250.53;4429400;32;20057;-78
2022/01/29 04:43:02;;;;;;;3.30;3.20;;;;;;;5.33;100.00;102253.13;4429289;32;20080;-77
2022/01/29 04:45:27;;;;;;;4.22;4.03;;;;;;;4.75;100.00;102212.63;4418963;32;20075;-76
2022/01/29 04:47:52;;;;;;;3.30;3.20;;;;;;;5.18;100.00;102231.50;4411371;32;20174;-75
2022/01/29 04:50:18;;;;;;;3.15;3.05;;;;;;;5.37;100.00;102257.44;4431360;32;20149;-77
2022/01/29 04:52:43;;;;;;;3.60;3.50;;;;;;;5.19;100.00;102235.88;4428288;32;20075;-77
2022/01/29 04:55:09;;;;;;;3.40;3.30;;;;;;;5.40;100.00;102257.44;4425620;32;20072;-77
2022/01/29 04:57:36;;;;;;;3.10;3.00;;;;;;;5.36;100.00;102261.78;4430899;32;20566;-78
2022/01/29 05:00:06;;;;;;;3.15;3.05;;;;;;;5.31;100.00;102249.66;4428913;32;20087;-76
2022/01/29 05:02:31;;;;;;;4.97;4.78;;;;;;;1.37;100.00;101599.37;4420560;32;20140;-78
2022/01/29 05:04:56;;;;;;;3.28;3.17;;;;;;;4.99;100.00;102196.03;4412392;32;20076;-76
2022/01/29 05:07:22;;;;;;;4.50;4.30;;;;;;;5.28;100.00;102252.31;4429176;32;20075;-76
2022/01/29 05:09:47;;;;;;;3.12;3.03;;;;;;;4.52;100.00;102124.31;4426030;32;20666;-76
2022/01/29 05:12:19;;;;;;;3.50;3.40;;;;;;;5.01;100.00;102199.50;4423293;32;20136;-77
2022/01/29 05:15:04;;;;;;;3.50;3.40;;;;;;;5.16;100.00;102225.44;4427203;32;20063;-76
2022/01/29 05:28:25;;;;;;;4.37;4.18;;;;;;;4.91;100.00;102179.59;4428745;32;20115;-76
2022/01/29 05:30:50;;;;;;;3.10;3.00;;;;;;;5.22;100.00;102208.09;4425830;32;20092;-74
2022/01/29 05:33:16;;;;;;;3.50;3.40;;;;;;;5.31;100.00;102234.94;4423540;32;20064;-74
2022/01/29 05:35:41;;;;;;;3.62;3.53;;;;;;;5.09;100.00;102182.13;4413386;32;20100;-76
2022/01/29 05:38:06;;;;;;;3.22;3.12;;;;;;;5.25;100.00;102195.94;4423391;32;20072;-76
2022/01/29 05:40:32;;;;;;;4.95;4.75;;;;;;;4.98;100.00;102163.97;4422925;32;20640;-75
2022/01/29 05:42:57;;;;;;;3.25;3.15;;;;;;;5.13;100.00;102175.16;4427524;32;20088;-75
2022/01/29 05:45:22;;;;;;;4.00;3.83;;;;;;;5.07;100.00;102155.25;4413001;32;20083;-77
2022/01/29 05:47:48;;;;;;;3.40;3.30;;;;;;;5.32;100.00;102196.75;4409731;32;20827;-77
2022/01/29 05:50:13;;;;;;;3.17;3.08;;;;;;;5.48;100.00;102220.94;4423950;32;20068;-78
2022/01/29 05:52:38;;;;;;;4.28;4.07;;;;;;;5.02;100.00;102144.00;4415903;32;20207;-76
2022/01/29 05:55:04;;;;;;;3.22;3.12;;;;;;;4.49;100.00;102057.59;4424286;32;20115;-76
2022/01/29 05:57:30;;;;;;;4.50;4.30;;;;;;;4.52;100.00;102054.13;4426618;32;20080;-75
2022/01/29 05:59:55;;;;;;;3.78;3.60;;;;;;;5.51;100.00;102206.19;4423694;32;20145;-77
2022/01/29 06:02:20;;;;;;;3.25;3.15;;;;;;;5.23;100.00;102160.34;4427037;32;20064;-75
2022/01/29 06:04:46;;;;;;;3.30;3.20;;;;;;;5.11;100.00;102140.47;4422032;32;20809;-76
2022/01/29 06:07:11;;;;;;;3.00;2.90;;;;;;;5.10;100.00;102131.81;4411173;32;20394;-78
2022/01/29 06:09:36;;;;;;;4.50;4.30;;;;;;;5.30;100.00;102156.84;4421258;32;20093;-78
2022/01/29 06:12:02;;;;;;;3.22;3.12;;;;;;;4.75;100.00;102061.78;4421631;32;20188;-77
2022/01/29 06:14:27;;;;;;;4.68;4.47;;;;;;;5.03;100.00;102100.63;4415272;32;20293;-75
2022/01/29 06:16:53;;;;;;;3.90;3.70;;;;;;;5.08;100.00;102097.13;4420392;32;20528;-75
2022/01/29 06:19:18;;;;;;;3.30;3.20;;;;;;;5.49;100.00;102168.87;4429834;32;20072;-76
2022/01/29 06:21:43;;;;;;;3.40;3.30;;;;;;;5.63;100.00;102186.09;4426320;32;20587;-76
2022/01/29 06:24:09;;;;;;;3.28;3.15;;;;;;;5.65;100.00;102192.16;4436789;32;20080;-76
2022/01/29 06:26:34;;;;;;;4.40;4.20;;;;;;;5.69;100.00;102189.56;4427463;32;20134;-75
2022/01/29 06:29:00;;;;;;;3.40;3.30;;;;;;;4.16;100.00;101934.75;4416959;32;20408;-75
2022/01/29 06:31:25;;;;;;;4.07;3.90;;;;;;;5.74;100.00;102176.47;4428353;32;20083;-75
2022/01/29 06:33:51;;;;;;;3.20;3.10;;;;;;;5.62;100.00;102150.53;4415007;32;20554;-75
2022/01/29 06:36:16;;;;;;;3.20;3.10;;;;;;;5.75;100.00;102189.50;4413943;32;20060;-76
2022/01/29 06:38:41;;;;;;;3.90;3.70;;;;;;;5.77;100.00;102168.63;4424678;32;20065;-76
2022/01/29 06:41:07;;;;;;;3.25;3.15;;;;;;;5.58;100.00;102128.84;4411517;32;20100;-75
2022/01/29 06:43:32;;;;;;;5.00;4.75;;;;;;;5.28;100.00;102072.69;4398827;32;20076;-77
2022/01/29 06:45:57;;;;;;;3.40;3.30;;;;;;;5.67;100.00;102133.12;4397092;32;20727;-75
2022/01/29 06:48:23;;;;;;;4.10;3.92;;;;;;;5.26;100.00;102064.91;4397965;32;20500;-75
2022/01/29 06:50:48;;;;;;;3.25;3.15;;;;;;;5.64;100.00;102115.78;4400694;32;20326;-78
2022/01/29 06:53:13;;;;;;;3.30;3.20;;;;;;;5.46;100.00;102082.94;4412578;32;20079;-76
2022/01/29 06:55:39;;;;;;;4.35;4.15;;;;;;;4.92;100.00;101986.25;4426616;32;20534;-76
2022/01/29 06:58:04;;;;;;;3.40;3.30;;;;;;;5.66;100.00;102118.37;4411055;32;20107;-76
2022/01/29 07:00:30;;;;;;;5.60;5.40;;;;;;;5.97;100.00;102164.16;4391632;32;20503;-77
2022/01/29 07:02:55;;;;;;;3.30;3.20;;;;;;;5.20;100.00;102024.16;4399675;32;20083;-76
2022/01/29 07:05:21;;;;;;;3.72;3.53;;;;;;;5.72;100.00;102113.97;4407383;32;20065;-77
2022/01/29 07:07:46;;;;;;;3.30;3.20;;;;;;;5.75;100.00;102110.47;4425480;32;20102;-77
2022/01/29 07:10:11;;;;;;;3.55;3.40;;;;;;;5.91;100.00;102132.91;4423127;32;20072;-78
2022/01/29 07:12:37;;;;;;;5.12;4.93;;;;;;;6.07;100.00;102149.25;4423518;32;20888;-77
2022/01/29 07:15:07;;;;;;;3.50;3.40;;;;;;;5.14;100.00;101998.19;4422906;32;20593;-76
2022/01/29 07:17:33;;;;;;;4.57;4.37;;;;;;;5.51;100.00;102044.72;4419016;32;20119;-76
2022/01/29 07:19:58;;;;;;;3.30;3.20;;;;;;;5.90;100.00;102105.13;4425403;32;20102;-77
2022/01/29 07:22:24;;;;;;;4.12;3.92;;;;;;;6.14;100.00;102131.84;4420121;32;20056;-76
2022/01/29 07:24:49;;;;;;;3.12;3.03;;;;;;;5.12;100.00;101976.53;4424654;32;20082;-74
2022/01/29 07:27:14;;;;;;;3.50;3.30;;;;;;;5.18;100.00;101976.47;4426369;32;20087;-76
2022/01/29 07:29:40;;;;;;;3.75;3.65;;;;;;;6.18;100.00;102130.94;4422686;32;20696;-76
2022/01/29 07:33:04;;;;;;;3.40;3.30;;;;;;;6.23;100.00;102133.47;4428299;32;20452;-77
2022/01/29 07:35:29;;;;;;;7.03;6.72;;;;;;;6.19;100.00;102123.09;4421157;32;20810;-75
2022/01/29 07:37:54;;;;;;;3.45;3.35;;;;;;;6.26;100.00;102128.25;4419100;32;20088;-75
2022/01/29 07:40:20;;;;;;;4.15;3.95;;;;;;;6.26;100.00;102117.81;4423884;32;20671;-76
2022/01/29 07:42:45;;;;;;;3.55;3.42;;;;;;;6.28;100.00;102105.63;4408243;32;20090;-76
2022/01/29 07:45:10;;;;;;;3.55;3.45;;;;;;;6.38;100.00;102135.91;4419392;32;20114;-76
2022/01/29 07:47:36;;;;;;;3.50;3.40;;;;;;;6.12;100.00;102095.38;4422453;32;20095;-75
2022/01/29 07:50:02;;;;;;;3.60;3.50;;;;;;;6.35;100.00;102134.22;4425627;32;20108;-76
2022/01/29 07:52:32;;;;;;;4.55;4.35;;;;;;;6.25;100.00;102114.31;4408432;32;20068;-77
2022/01/29 07:54:57;;;;;;;3.53;3.42;;;;;;;6.45;100.00;102127.12;4423441;32;20126;-77
2022/01/29 07:57:23;;;;;;;3.50;3.40;;;;;;;6.48;100.00;102127.09;4420513;32;20923;-76
2022/01/29 07:59:48;;;;;;;3.30;3.20;;;;;;;6.46;100.00;102131.47;4422859;32;20068;-76
2022/01/29 08:02:13;;;;;;;3.78;3.67;;;;;;;6.51;100.00;102128.78;4422199;32;20092;-74
2022/01/29 08:04:39;;;;;;;4.62;4.43;;;;;;;6.11;100.00;102054.53;4418358;32;20438;-73
2022/01/29 08:07:04;;;;;;;3.50;3.40;;;;;;;6.53;100.00;102137.47;4411229;32;20084;-74
2022/01/29 08:09:29;;;;;;;4.72;4.53;;;;;;;6.58;100.00;102123.50;4418662;32;20095;-74
2022/01/29 08:11:55;;;;;;;3.80;3.60;;;;;;;6.58;100.00;102120.03;4418288;32;20077;-74
2022/01/29 08:14:20;;;;;;;3.70;3.60;;;;;;;6.45;100.00;102111.47;4417159;32;20133;-75
2022/01/29 08:16:45;;;;;;;3.72;3.60;;;;;;;6.44;100.00;102111.53;4404374;32;20080;-74
2022/01/29 08:19:11;;;;;;;3.60;3.50;;;;;;;6.58;100.00;102133.06;4421631;32;20069;-74
2022/01/29 08:21:38;;;;;;;5.25;5.05;;;;;;;6.47;100.00;102116.69;4410230;32;20068;-74
2022/01/29 08:24:05;;;;;;;4.15;3.95;;;;;;;6.61;100.00;102119.13;4424036;32;20754;-74
2022/01/29 08:26:31;;;;;;;4.57;4.37;;;;;;;6.68;100.00;102118.16;4404355;32;20085;-76
2022/01/29 08:28:56;;;;;;;3.50;3.40;;;;;;;6.24;100.00;102034.41;4408292;32;20084;-76
2022/01/29 08:31:22;;;;;;;3.58;3.47;;;;;;;6.55;100.00;102086.16;4388259;32;20092;-74
2022/01/29 08:33:47;;;;;;;3.50;3.40;;;;;;;6.73;100.00;102108.53;4382311;32;20941;-74
2022/01/29 08:36:12;;;;;;;3.78;3.60;;;;;;;6.82;100.00;102105.78;4392316;32;20099;-77
2022/01/29 08:38:38;;;;;;;5.15;4.95;;;;;;;6.79;100.00;102109.31;4388568;32;20073;-74
2022/01/29 08:41:04;;;;;;;3.70;3.60;;;;;;;6.69;100.00;102084.22;4407565;32;20077;-74
2022/01/29 08:43:29;;;;;;;5.03;4.82;;;;;;;6.75;100.00;102083.28;4401531;32;20084;-73
2022/01/29 08:45:55;;;;;;;4.35;4.15;;;;;;;6.50;100.00;102031.44;4389067;32;21065;-74
2022/01/29 08:48:20;;;;;;;3.80;3.60;;;;;;;6.91;100.00;102095.22;4404700;32;20108;-76
2022/01/29 08:50:45;;;;;;;3.35;3.25;;;;;;;6.96;100.00;102089.94;4403941;32;20250;-73
2022/01/29 08:53:11;;;;;;;3.40;3.30;;;;;;;6.80;100.00;102073.66;4392549;32;20064;-76
2022/01/29 08:55:37;;;;;;;4.30;3.90;;;;;;;6.43;100.00;102006.31;4404093;32;20645;-75
2022/01/29 08:58:08;;;;;;;5.00;4.80;;;;;;;6.87;100.00;102061.34;4389321;32;20081;-73
2022/01/29 09:02:23;;;;;;;3.70;3.60;;;;;;;7.14;100.00;102079.22;4453206;31;20148;-71
2022/01/29 09:04:48;;;;;;;4.00;3.80;;;;;;;6.91;100.00;102044.78;4413312;32;20596;-71
2022/01/29 09:07:13;;;;;;;4.15;3.95;;;;;;;7.21;100.00;102079.12;4391591;32;20283;-71
2022/01/29 09:09:43;;;;;;;3.60;3.50;;;;;;;7.22;100.00;102073.00;4389195;32;20097;-71
2022/01/29 09:12:09;;;;;;;4.82;4.62;;;;;;;6.86;100.00;101999.63;4387239;32;20826;-71
2022/01/29 09:14:34;;;;;;;3.97;3.78;;;;;;;7.09;100.00;102022.75;4391894;32;20068;-72
2022/01/29 09:17:00;;;;;;;5.68;5.45;;;;;;;7.14;100.00;102021.78;4386001;32;20154;-75
2022/01/29 09:19:25;;;;;;;4.00;3.80;;;;;;;7.37;100.00;102037.03;4404845;32;20172;-71
2022/01/29 09:21:50;;;;;;;3.87;3.75;;;;;;;7.45;98.87;102060.41;4390705;32;20126;-70
2022/01/29 09:24:16;;;;;;;5.15;4.95;;;;;;;6.81;98.86;101957.94;4402891;32;20087;-70
2022/01/29 09:26:41;;;;;;;3.95;3.80;;;;;;;7.53;98.61;102048.09;4388015;32;20900;-70
2022/01/29 09:29:06;;;;;;;5.35;5.15;;;;;;;7.65;99.05;102054.84;4385954;32;20064;-70
2022/01/29 09:31:32;;;;;;;3.60;3.50;;;;;;;7.64;98.00;102039.19;4403099;32;20577;-70
2022/01/29 09:33:57;;;;;;;5.82;5.57;;;;;;;7.76;98.39;102052.06;4395477;32;74665;-69
2022/01/29 09:36:23;;;;;;;4.25;4.05;;;;;;;7.77;98.00;102043.31;4413639;32;20637;-70
2022/01/29 09:38:48;;;;;;;4.00;3.80;;;;;;;7.78;98.30;102042.44;4404814;32;20442;-71
2022/01/29 09:41:15;;;;;;;3.92;3.75;;;;;;;7.58;97.25;101996.63;4409919;32;20083;-71
2022/01/29 09:43:43;;;;;;;4.10;3.90;;;;;;;7.85;96.75;102024.88;4407233;32;20129;-68
2022/01/29 09:46:09;;;;;;;6.03;5.75;;;;;;;7.69;97.12;102019.94;4399455;32;20138;-68
2022/01/29 09:48:34;;;;;;;3.85;3.70;;;;;;;7.78;96.82;102022.38;4390704;32;20065;-69
2022/01/29 09:51:00;;;;;;;5.37;5.18;;;;;;;6.66;97.16;101841.66;4388896;32;20078;-69
2022/01/29 09:53:25;;;;;;;4.00;3.80;;;;;;;7.79;97.65;102028.47;4400024;32;20174;-69
2022/01/29 09:55:51;;;;;;;4.22;4.03;;;;;;;5.19;97.24;101615.59;4405404;32;20081;-69
2022/01/29 09:58:16;;;;;;;3.90;3.70;;;;;;;7.82;98.45;102022.31;4403460;32;20063;-69
2022/01/29 10:00:42;;;;;;;3.80;3.70;;;;;;;7.81;97.81;102034.53;4406547;32;20704;-69
2022/01/29 10:03:10;;;;;;;5.28;5.07;;;;;;;7.86;98.12;102030.06;4404283;32;20069;-68
2022/01/29 10:05:36;;;;;;;4.28;4.07;;;;;;;7.89;97.91;102027.38;4416413;32;20104;-69
2022/01/29 10:08:02;;;;;;;5.45;5.25;;;;;;;7.97;96.62;102025.47;4392974;32;20084;-69
2022/01/29 10:10:27;;;;;;;3.70;3.60;;;;;;;7.97;97.50;102015.03;4393230;32;20138;-71
2022/01/29 10:12:53;;;;;;;7.00;6.40;;;;;;;7.94;96.62;102002.03;4392214;32;20081;-69
2022/01/29 10:15:18;;;;;;;3.90;3.70;;;;;;;8.14;96.77;102014.69;4396502;32;20092;-69
2022/01/29 10:17:51;;;;;;;3.70;3.60;;;;;;;7.98;95.70;101971.47;4392308;32;20587;-69
2022/01/29 10:20:19;;;;;;;4.00;3.80;;;;;;;8.42;95.52;102029.84;4396255;32;20057;-69
2022/01/29 10:22:46;;;;;;;4.10;3.90;;;;;;;8.37;94.88;102024.66;4402726;32;20072;-71
2022/01/29 10:25:18;;;;;;;4.07;3.87;;;;;;;8.41;94.16;102015.03;4396079;32;20301;-68
2022/01/29 10:28:19;;;;;;;4.07;3.87;;;;;;;8.37;94.02;102023.78;4393347;32;20492;-68
2022/01/29 10:30:51;;;;;;;3.65;3.55;;;;;;;8.41;93.54;102025.47;4383092;32;20527;-68
2022/01/29 10:33:27;;;;;;;4.20;4.00;;;;;;;8.42;93.74;102022.00;4409018;32;20100;-69
2022/01/29 10:35:57;;;;;;;4.30;4.10;;;;;;;8.38;94.05;102004.59;4402159;32;20061;-69
2022/01/29 10:38:24;;;;;;;4.05;3.85;;;;;;;8.45;93.51;102005.34;4376404;32;20072;-69
2022/01/29 10:41:22;;;;;;;4.20;4.00;;;;;;;8.48;93.55;102013.13;4388351;32;20073;-68
2022/01/29 10:44:14;;;;;;;4.10;3.90;;;;;;;8.53;92.78;101985.13;4387088;32;20124;-69
2022/01/29 10:46:40;;;;;;;4.30;4.10;;;;;;;8.59;93.50;101996.28;4392295;32;20084;-70
2022/01/29 10:49:06;;;;;;;5.15;4.95;;;;;;;8.39;92.66;101947.00;4390807;32;20848;-67
2022/01/29 10:51:32;;;;;;;4.03;3.85;;;;;;;8.60;93.11;101984.09;4383212;32;20075;-68
2022/01/29 10:54:17;;;;;;;6.07;5.78;;;;;;;8.70;92.83;101998.69;4392763;32;20064;-70
2022/01/29 10:57:09;;;;;;;3.83;3.72;;;;;;;8.54;93.54;101989.47;4391125;32;20070;-71
2022/01/29 10:59:38;;;;;;;3.70;3.60;;;;;;;8.46;93.08;101992.25;4386374;32;20069;-68
2022/01/29 11:02:06;;;;;;;6.05;5.75;;;;;;;8.48;94.85;101984.34;4388171;32;20085;-70
2022/01/29 11:04:32;;;;;;;4.35;4.15;;;;;;;8.47;94.05;101977.41;4391821;32;20074;-68
2022/01/29 11:07:00;;;;;;;5.68;5.47;;;;;;;8.53;94.87;101987.72;4383760;32;20660;-70
2022/01/29 11:09:27;;;;;;;4.20;4.00;;;;;;;8.42;95.65;101974.03;4394575;32;20578;-67
2022/01/29 11:11:52;;;;;;;4.32;4.18;;;;;;;8.36;95.97;101978.47;4388803;32;20150;-68
2022/01/29 11:14:19;;;;;;;4.12;3.92;;;;;;;8.27;97.05;101957.75;4390184;32;20108;-68
2022/01/29 11:16:45;;;;;;;3.85;3.72;;;;;;;8.30;97.07;101957.69;4391909;32;20088;-68
2022/01/29 11:19:11;;;;;;;4.40;4.20;;;;;;;8.30;97.74;101962.03;4390499;32;20445;-68
2022/01/29 11:21:36;;;;;;;4.10;3.90;;;;;;;8.32;98.38;101963.75;4390565;32;20155;-70
2022/01/29 11:24:02;;;;;;;5.30;5.10;;;;;;;8.35;99.05;101941.87;4388784;32;20089;-68
2022/01/29 11:26:30;;;;;;;3.80;3.70;;;;;;;7.98;99.03;101869.53;4392408;32;20175;-70
2022/01/29 11:29:24;;;;;;;4.70;4.50;;;;;;;8.43;100.00;101929.53;4376278;32;20171;-68
2022/01/29 11:32:21;;;;;;;4.20;4.00;;;;;;;8.53;100.00;101930.16;4387328;32;20590;-68
2022/01/29 11:35:05;;;;;;;4.05;3.85;;;;;;;8.59;99.73;101935.25;4394268;32;20767;-68
2022/01/29 11:37:43;;;;;;;3.65;3.55;;;;;;;8.68;100.00;101916.72;4399508;32;20072;-69
2022/01/29 11:40:20;;;;;;;5.37;5.18;;;;;;;8.70;99.85;101909.69;4397785;32;20700;-68
2022/01/29 11:43:07;;;;;;;3.78;3.67;;;;;;;8.74;99.90;101913.06;4388109;32;20188;-68
2022/01/29 11:45:54;;;;;;;4.03;3.83;;;;;;;8.69;100.00;101914.97;4390232;32;20080;-69